Аэропорт: Нариманово. Астрахань

ICAO: URWA

METAR:
2020-06-04 04:30:00
URWA 040430Z 31006MPS CAVOK 22/15 Q1010 R09/010070 NOSIG RMK QFE759/1013
METAR:
2020-06-04 02:00:00
TAF URWA 040200Z 0403/0412 32005G10MPS 9999 SCT040 TEMPO 0403/0412 29007G13MPS